Time;durP1;ratioP1;P1;durP2;ratioP2;P2;SDS_P1;SDS_P2;PMS_P1;PMS_P2;Temp;Humidity;BMP_temperature;BMP_pressure;BME280_temperature;BME280_humidity;BME280_pressure;Samples;Min_cycle;Max_cycle;Signal;HPM_P1;HPM_P2
2022/12/21 00:01:28;;;;;;;79.25;39.28;;;8.90;99.90;;;;;;5049237;28;20041;-51
2022/12/21 00:03:59;;;;;;;70.55;36.05;;;8.90;99.90;;;;;;5048121;28;20037;-51
2022/12/21 00:06:27;;;;;;;62.33;34.33;;;8.90;99.90;;;;;;5049209;28;20039;-51
2022/12/21 00:08:55;;;;;;;58.63;32.67;;;8.90;99.90;;;;;;5049285;28;20045;-53
2022/12/21 00:11:22;;;;;;;54.47;30.95;;;8.90;99.90;;;;;;5049149;28;20048;-53
2022/12/21 00:13:48;;;;;;;70.72;35.80;;;8.90;99.90;;;;;;5048306;28;20049;-52
2022/12/21 00:16:15;;;;;;;65.68;33.33;;;8.90;99.90;;;;;;5048557;28;20048;-50
2022/12/21 00:18:42;;;;;;;61.55;32.47;;;8.80;99.90;;;;;;5047972;28;20254;-50
2022/12/21 00:21:16;;;;;;;70.65;35.78;;;8.80;99.90;;;;;;5049078;28;20033;-51
2022/12/21 00:23:43;;;;;;;66.45;35.05;;;8.80;99.90;;;;;;5048467;28;20462;-51
2022/12/21 00:26:11;;;;;;;66.95;36.80;;;8.80;99.90;;;;;;5047499;28;20071;-54
2022/12/21 00:28:36;;;;;;;62.97;33.80;;;8.80;99.90;;;;;;5048868;28;20045;-52
2022/12/21 00:31:09;;;;;;;60.60;34.90;;;8.80;99.90;;;;;;5050851;28;20043;-54
2022/12/21 00:33:36;;;;;;;61.58;33.47;;;8.80;99.90;;;;;;5052644;28;20064;-55
2022/12/21 00:36:02;;;;;;;64.25;34.17;;;8.70;99.90;;;;;;5051556;28;20036;-51
2022/12/21 00:38:28;;;;;;;69.78;34.83;;;8.70;99.90;;;;;;5052904;28;20108;-54
2022/12/21 00:40:58;;;;;;;63.90;33.07;;;8.70;99.90;;;;;;5053212;28;20124;-55
2022/12/21 00:43:25;;;;;;;60.22;34.25;;;8.70;99.90;;;;;;5051531;28;20288;-53
2022/12/21 00:45:51;;;;;;;;;;;8.70;99.90;;;;;;5053585;28;20045;-55
2022/12/21 00:48:16;;;;;;;62.33;32.05;;;8.60;99.90;;;;;;5052652;28;19924;-53
2022/12/21 00:50:42;;;;;;;60.70;32.10;;;8.50;99.90;;;;;;5052894;28;20525;-52
2022/12/21 00:53:08;;;;;;;61.93;34.60;;;8.50;99.90;;;;;;5051473;28;20405;-55
2022/12/21 00:55:34;;;;;;;55.70;31.75;;;8.50;99.90;;;;;;5052602;28;20526;-53
2022/12/21 00:58:00;;;;;;;;;;;8.50;99.90;;;;;;5052148;28;20037;-54
2022/12/21 01:00:26;;;;;;;54.08;29.08;;;8.40;99.90;;;;;;5053257;28;20306;-52
2022/12/21 01:02:52;;;;;;;64.55;33.60;;;8.40;99.90;;;;;;5052117;28;20032;-54
2022/12/21 01:05:18;;;;;;;64.28;36.40;;;8.40;99.90;;;;;;5052625;28;20041;-52
2022/12/21 01:07:44;;;;;;;70.50;36.38;;;8.40;99.90;;;;;;5052298;28;20041;-54
2022/12/21 01:10:10;;;;;;;80.20;37.93;;;8.40;99.90;;;;;;5052605;28;20115;-54
2022/12/21 01:12:36;;;;;;;86.10;39.67;;;8.40;99.90;;;;;;5052008;28;20095;-54
2022/12/21 01:15:02;;;;;;;77.63;37.67;;;8.40;99.90;;;;;;5051434;28;20510;-55
2022/12/21 01:17:27;;;;;;;92.38;41.50;;;8.40;99.90;;;;;;5051836;28;20040;-54
2022/12/21 01:19:53;;;;;;;84.67;40.30;;;8.40;99.90;;;;;;5052538;28;20037;-50
2022/12/21 01:22:18;;;;;;;82.60;40.03;;;8.40;99.90;;;;;;5051824;28;20040;-51
2022/12/21 01:24:46;;;;;;;78.80;38.03;;;8.50;99.90;;;;;;5050699;28;20111;-51
2022/12/21 01:27:11;;;;;;;68.82;33.67;;;8.50;99.90;;;;;;5050169;28;20047;-50
2022/12/21 01:29:37;;;;;;;82.43;38.37;;;8.50;99.90;;;;;;5051623;28;20045;-50
2022/12/21 01:32:03;;;;;;;80.37;37.57;;;8.40;99.90;;;;;;5051161;28;20067;-51
2022/12/21 01:34:28;;;;;;;83.15;39.33;;;8.40;99.90;;;;;;5050135;28;20029;-54
2022/12/21 01:36:54;;;;;;;77.37;36.27;;;8.40;99.90;;;;;;5050852;28;20041;-52
2022/12/21 01:39:19;;;;;;;81.47;35.53;;;8.40;99.90;;;;;;5050746;28;20468;-50
2022/12/21 01:41:45;;;;;;;79.47;36.07;;;8.40;99.90;;;;;;5049841;28;20040;-51
2022/12/21 01:44:53;;;;;;;87.73;38.33;;;8.40;99.90;;;;;;5049694;28;20037;-51
2022/12/21 01:47:24;;;;;;;85.03;36.67;;;8.40;99.90;;;;;;5050682;28;20398;-50
2022/12/21 01:49:56;;;;;;;90.05;37.75;;;8.50;99.90;;;;;;5049327;28;20057;-51
2022/12/21 01:52:22;;;;;;;98.18;38.05;;;8.50;99.90;;;;;;5050744;28;20414;-50
2022/12/21 01:54:54;;;;;;;90.63;38.65;;;8.50;99.90;;;;;;5049813;28;20025;-50
2022/12/21 01:57:22;;;;;;;94.35;37.28;;;8.50;99.90;;;;;;5050314;28;20441;-51
2022/12/21 01:59:52;;;;;;;81.10;36.83;;;8.50;99.90;;;;;;5050466;28;20067;-50
2022/12/21 02:02:22;;;;;;;83.38;34.67;;;8.50;99.90;;;;;;5050342;28;20037;-53
2022/12/21 02:04:51;;;;;;;71.70;31.48;;;8.50;99.90;;;;;;5049808;28;20443;-53
2022/12/21 02:07:18;;;;;;;70.82;31.15;;;8.50;99.90;;;;;;5049918;28;20068;-51
2022/12/21 02:09:44;;;;;;;68.28;29.45;;;8.50;99.90;;;;;;5050985;28;20398;-51
2022/12/21 02:12:13;;;;;;;61.05;26.40;;;8.40;99.90;;;;;;5050084;28;20040;-51
2022/12/21 02:14:43;;;;;;;69.60;28.33;;;8.40;99.90;;;;;;5049340;28;20049;-51
2022/12/21 02:17:30;;;;;;;58.67;25.48;;;8.40;99.90;;;;;;5049208;28;20045;-50
2022/12/21 02:20:26;;;;;;;59.78;24.42;;;8.40;99.90;;;;;;5050312;28;20040;-51
2022/12/21 02:22:55;;;;;;;60.60;26.35;;;8.40;99.90;;;;;;5012884;28;1058891;-52
2022/12/21 02:25:32;;;;;;;63.70;25.15;;;8.40;99.90;;;;;;5051078;28;20048;-51
2022/12/21 02:28:15;;;;;;;55.92;25.45;;;8.30;99.90;;;;;;5050230;28;20048;-50
2022/12/21 02:31:06;;;;;;;64.20;25.10;;;8.30;99.90;;;;;;5050882;28;20106;-51
2022/12/21 02:33:56;;;;;;;61.15;26.27;;;8.30;99.90;;;;;;5035205;28;20517;-53
2022/12/21 02:36:50;;;;;;;69.90;26.80;;;8.30;99.90;;;;;;5050881;28;20511;-51
2022/12/21 02:39:41;;;;;;;58.20;25.00;;;8.30;99.90;;;;;;5050715;28;20033;-51
2022/12/21 02:45:50;;;;;;;55.28;23.98;;;8.20;99.90;;;;;;5050237;28;20045;-52
2022/12/21 02:48:38;;;;;;;63.72;25.15;;;8.20;99.90;;;;;;5050431;28;20056;-49
2022/12/21 02:51:11;;;;;;;64.80;24.67;;;8.30;99.90;;;;;;5046355;28;20055;-55
2022/12/21 02:53:39;;;;;;;60.00;24.23;;;8.30;99.90;;;;;;5048386;28;20078;-51
2022/12/21 02:56:12;;;;;;;71.47;27.02;;;8.30;99.90;;;;;;5049694;28;20037;-49
2022/12/21 02:58:38;;;;;;;66.68;26.70;;;8.30;99.90;;;;;;5050056;28;20044;-52
2022/12/21 03:01:19;;;;;;;71.23;27.43;;;8.30;99.90;;;;;;5050160;28;20033;-54
2022/12/21 03:03:56;;;;;;;61.92;26.67;;;8.30;99.90;;;;;;5049179;28;20112;-52
2022/12/21 03:06:25;;;;;;;51.67;23.50;;;8.20;99.90;;;;;;5050628;28;20402;-51
2022/12/21 03:09:09;;;;;;;49.50;22.25;;;8.20;99.90;;;;;;5043249;28;20052;-53
2022/12/21 03:11:45;;;;;;;57.17;24.13;;;8.10;99.90;;;;;;5050098;28;20347;-53
2022/12/21 03:14:21;;;;;;;61.92;24.17;;;8.00;99.90;;;;;;5049106;28;20076;-55
2022/12/21 03:16:51;;;;;;;66.13;22.20;;;8.00;99.90;;;;;;5050675;28;20091;-54
2022/12/21 03:19:38;;;;;;;57.90;24.63;;;7.90;99.90;;;;;;5082572;28;20085;-54
2022/12/21 03:22:15;;;;;;;58.53;24.35;;;7.90;99.90;;;;;;5050707;28;20043;-52
2022/12/21 03:24:47;;;;;;;;;;;7.90;99.90;;;;;;5049544;28;20029;-55
2022/12/21 03:27:20;;;;;;;53.53;25.08;;;7.90;99.90;;;;;;5049414;28;19917;-55
2022/12/21 03:29:55;;;;;;;64.80;27.20;;;7.80;99.90;;;;;;5048791;28;20048;-54
2022/12/21 03:32:47;;;;;;;49.03;23.52;;;7.80;99.90;;;;;;5049124;28;20124;-55
2022/12/21 03:35:26;;;;;;;57.78;26.05;;;7.80;99.90;;;;;;5048736;28;20498;-50
2022/12/21 03:37:54;;;;;;;62.22;27.10;;;7.80;99.90;;;;;;5049447;28;20040;-50
2022/12/21 03:40:24;;;;;;;48.38;23.98;;;7.70;99.90;;;;;;5049504;28;20056;-52
2022/12/21 03:43:11;;;;;;;60.35;26.85;;;7.80;99.90;;;;;;5036462;28;20052;-53
2022/12/21 03:45:44;;;;;;;;;;;7.80;99.90;;;;;;5049000;28;20406;-52
2022/12/21 03:48:24;;;;;;;65.88;24.58;;;7.80;99.90;;;;;;5049180;28;19920;-51
2022/12/21 03:50:53;;;;;;;59.75;23.98;;;7.80;99.90;;;;;;5049346;28;20037;-51
2022/12/21 03:53:39;;;;;;;64.32;28.33;;;7.80;99.90;;;;;;5048802;28;20044;-51
2022/12/21 03:56:07;;;;;;;64.55;24.95;;;7.70;99.90;;;;;;5049527;28;20045;-50
2022/12/21 03:58:35;;;;;;;65.05;27.27;;;7.70;99.90;;;;;;5048930;28;20098;-51
2022/12/21 04:01:25;;;;;;;78.90;27.83;;;7.70;99.90;;;;;;5049127;28;20049;-53
2022/12/21 04:03:56;;;;;;;61.85;25.55;;;7.70;99.90;;;;;;5041690;28;20123;-51
2022/12/21 04:06:25;;;;;;;68.18;26.45;;;7.80;99.90;;;;;;5047948;28;20044;-50
2022/12/21 04:08:51;;;;;;;71.15;29.40;;;7.80;99.90;;;;;;5049019;28;20090;-52
2022/12/21 04:14:01;;;;;;;69.45;27.38;;;7.80;99.90;;;;;;5048190;28;20053;-51
2022/12/21 04:16:27;;;;;;;66.23;28.00;;;7.80;99.90;;;;;;5049182;28;20037;-51
2022/12/21 04:21:37;;;;;;;64.25;26.95;;;7.80;99.90;;;;;;5049427;28;20044;-51
2022/12/21 04:29:31;;;;;;;72.10;26.48;;;7.90;99.90;;;;;;5049263;28;20044;-49
2022/12/21 04:31:56;;;;;;;76.07;27.37;;;7.90;99.90;;;;;;5064719;28;20415;-51
2022/12/21 04:34:22;;;;;;;75.27;29.13;;;7.90;99.90;;;;;;5047954;28;20126;-51
2022/12/21 04:39:32;;;;;;;64.13;27.77;;;7.90;99.90;;;;;;5048930;28;20116;-51
2022/12/21 04:41:58;;;;;;;69.83;26.13;;;7.90;99.90;;;;;;5048993;28;20033;-51
2022/12/21 04:44:23;;;;;;;73.00;30.93;;;7.80;99.90;;;;;;5048358;28;20497;-52
2022/12/21 04:46:49;;;;;;;89.63;33.30;;;7.80;99.90;;;;;;5049240;28;20049;-52
2022/12/21 04:49:15;;;;;;;89.13;33.67;;;7.80;99.90;;;;;;5048427;28;20063;-53
2022/12/21 04:51:40;;;;;;;76.97;31.73;;;7.80;99.90;;;;;;5049149;28;20640;-53
2022/12/21 04:54:06;;;;;;;77.60;33.13;;;7.90;99.90;;;;;;5048599;28;20041;-54
2022/12/21 04:56:31;;;;;;;78.67;31.30;;;7.80;99.90;;;;;;5049264;28;20509;-53
2022/12/21 04:58:57;;;;;;;83.47;33.95;;;7.80;99.90;;;;;;5048965;28;20390;-53
2022/12/21 05:01:23;;;;;;;81.90;32.23;;;7.80;99.90;;;;;;5048557;28;20564;-51
2022/12/21 05:03:49;;;;;;;77.97;34.53;;;7.90;99.90;;;;;;5048054;28;20033;-51
2022/12/21 05:06:17;;;;;;;79.63;33.20;;;7.90;99.90;;;;;;5049775;28;20398;-55
2022/12/21 05:08:43;;;;;;;88.57;38.10;;;7.90;99.90;;;;;;5048517;28;20513;-51
2022/12/21 05:11:18;;;;;;;100.78;37.67;;;7.90;99.90;;;;;;5049229;28;20048;-55
2022/12/21 05:13:44;;;;;;;94.65;36.80;;;7.90;99.90;;;;;;5047168;28;20498;-52
2022/12/21 05:16:14;;;;;;;98.95;36.50;;;7.90;99.90;;;;;;5050395;28;20041;-51
2022/12/21 05:18:40;;;;;;;91.40;36.60;;;7.90;99.90;;;;;;5051581;28;20053;-54
2022/12/21 05:21:06;;;;;;;102.20;37.72;;;7.90;99.90;;;;;;5052354;28;20494;-54
2022/12/21 05:23:32;;;;;;;101.37;36.33;;;7.90;99.90;;;;;;5051129;28;20037;-52
2022/12/21 05:25:57;;;;;;;90.75;38.13;;;7.90;99.90;;;;;;5051221;28;20123;-53
2022/12/21 05:28:23;;;;;;;93.23;38.07;;;7.90;99.90;;;;;;5051923;28;20049;-54
2022/12/21 05:30:48;;;;;;;84.20;34.40;;;7.90;99.90;;;;;;5051845;28;20044;-55
2022/12/21 05:33:14;;;;;;;94.77;36.20;;;7.90;99.90;;;;;;5051356;28;20045;-55
2022/12/21 05:35:40;;;;;;;88.22;34.83;;;7.90;99.90;;;;;;5052331;28;20041;-52
2022/12/21 05:38:06;;;;;;;82.57;34.63;;;7.90;99.90;;;;;;5051461;28;20494;-55
2022/12/21 05:40:33;;;;;;;97.88;35.50;;;7.90;99.90;;;;;;5050823;28;20043;-54
2022/12/21 05:42:59;;;;;;;101.47;40.13;;;7.90;99.90;;;;;;5050460;28;20093;-52
2022/12/21 05:45:25;;;;;;;101.10;38.95;;;7.90;99.90;;;;;;5051652;28;20570;-54
2022/12/21 05:47:50;;;;;;;105.50;40.23;;;7.90;99.90;;;;;;5051211;28;20133;-53
2022/12/21 05:50:16;;;;;;;119.17;42.97;;;7.90;99.90;;;;;;5052155;28;20115;-54
2022/12/21 05:52:42;;;;;;;119.85;40.38;;;7.90;99.90;;;;;;5051461;28;20033;-51
2022/12/21 05:55:07;;;;;;;121.90;42.53;;;8.00;99.90;;;;;;5050794;28;20223;-50
2022/12/21 05:57:33;;;;;;;116.82;44.00;;;8.00;99.90;;;;;;5051427;28;20293;-53
2022/12/21 05:59:59;;;;;;;127.07;44.57;;;8.00;99.90;;;;;;5050351;28;20049;-52
2022/12/21 06:02:24;;;;;;;132.07;44.40;;;8.00;99.90;;;;;;5051145;28;20112;-50
2022/12/21 06:04:50;;;;;;;120.43;42.07;;;8.10;99.90;;;;;;5050826;28;20494;-50
2022/12/21 06:07:15;;;;;;;121.83;43.03;;;8.00;99.90;;;;;;5049867;28;20533;-50
2022/12/21 06:09:41;;;;;;;134.07;46.27;;;8.00;99.90;;;;;;5051882;28;20401;-51
2022/12/21 06:12:06;;;;;;;121.87;41.40;;;8.00;99.90;;;;;;5051353;28;20073;-50
2022/12/21 06:14:32;;;;;;;120.50;42.30;;;8.00;99.90;;;;;;5050123;28;20394;-50
2022/12/21 06:16:57;;;;;;;129.33;43.37;;;8.00;99.90;;;;;;5050542;28;20357;-51
2022/12/21 06:19:23;;;;;;;131.00;46.07;;;8.00;99.90;;;;;;5050960;28;20033;-51
2022/12/21 06:21:48;;;;;;;149.10;51.30;;;8.00;99.90;;;;;;5050242;28;20128;-50
2022/12/21 06:24:14;;;;;;;162.07;50.83;;;8.00;99.90;;;;;;5050162;28;20040;-52
2022/12/21 06:26:39;;;;;;;200.03;53.93;;;8.00;99.90;;;;;;5051749;28;20106;-52
2022/12/21 06:29:05;;;;;;;150.30;46.97;;;8.00;99.90;;;;;;5050213;28;20063;-51
2022/12/21 06:31:31;;;;;;;155.03;49.53;;;8.00;99.90;;;;;;5050775;28;20106;-50
2022/12/21 06:33:56;;;;;;;161.10;53.20;;;8.00;99.90;;;;;;5050647;28;20562;-51
2022/12/21 06:36:22;;;;;;;167.93;49.23;;;8.00;99.90;;;;;;5050923;28;20486;-54
2022/12/21 06:38:47;;;;;;;158.82;51.30;;;8.00;99.90;;;;;;5048389;28;20029;-52
2022/12/21 06:41:15;;;;;;;158.70;52.73;;;8.00;99.90;;;;;;5050278;28;20068;-50
2022/12/21 06:43:42;;;;;;;192.57;57.67;;;8.00;99.90;;;;;;5033914;28;20041;-52
2022/12/21 06:46:11;;;;;;;178.77;53.83;;;8.00;99.90;;;;;;5043687;28;20080;-52
2022/12/21 06:48:38;;;;;;;155.88;49.50;;;7.90;99.90;;;;;;5050312;28;20045;-51
2022/12/21 06:51:07;;;;;;;186.93;54.20;;;8.00;99.90;;;;;;5049311;28;20044;-50
2022/12/21 06:53:35;;;;;;;202.73;53.17;;;7.90;99.90;;;;;;5045089;28;20037;-51
2022/12/21 06:56:08;;;;;;;221.35;55.05;;;8.00;99.90;;;;;;5050782;28;20044;-50
2022/12/21 06:58:35;;;;;;;268.98;55.45;;;7.90;99.90;;;;;;5050048;28;20068;-51
2022/12/21 07:01:10;;;;;;;266.23;56.50;;;7.90;99.90;;;;;;5050728;28;20048;-51
2022/12/21 07:03:37;;;;;;;327.48;57.75;;;7.90;99.90;;;;;;5048439;28;20049;-53
2022/12/21 07:06:03;;;;;;;365.05;63.58;;;7.90;99.90;;;;;;5050446;28;20048;-53
2022/12/21 07:08:29;;;;;;;446.25;69.32;;;7.90;99.90;;;;;;5049857;28;20041;-52
2022/12/21 07:11:00;;;;;;;409.02;62.22;;;7.90;99.90;;;;;;5050259;28;20040;-51
2022/12/21 07:13:26;;;;;;;482.63;67.10;;;7.80;99.90;;;;;;5048322;28;20099;-50
2022/12/21 07:15:52;;;;;;;;;;;7.80;99.90;;;;;;5050391;28;20040;-52
2022/12/21 07:18:18;;;;;;;223.20;49.38;;;7.80;99.90;;;;;;5050114;28;19917;-53
2022/12/21 07:20:44;;;;;;;252.85;55.72;;;7.80;99.90;;;;;;5049832;28;20041;-51
2022/12/21 07:23:09;;;;;;;300.97;56.57;;;7.80;99.90;;;;;;5048711;28;20513;-51
2022/12/21 07:25:35;;;;;;;268.10;55.70;;;7.80;99.90;;;;;;5049487;28;20044;-51
2022/12/21 07:28:01;;;;;;;202.73;53.87;;;7.70;99.90;;;;;;5049102;28;20037;-54
2022/12/21 07:30:26;;;;;;;257.33;57.13;;;7.80;99.90;;;;;;5050040;28;20033;-55
2022/12/21 07:32:53;;;;;;;349.20;60.30;;;7.70;99.90;;;;;;5046716;28;20510;-54
2022/12/21 07:35:21;;;;;;;279.45;60.03;;;7.70;99.90;;;;;;5047518;28;20311;-54
2022/12/21 07:37:47;;;;;;;230.77;56.83;;;7.70;99.90;;;;;;5047671;28;20494;-54
2022/12/21 07:40:15;;;;;;;276.45;55.30;;;7.70;99.90;;;;;;5048372;28;20376;-54
2022/12/21 07:42:42;;;;;;;383.83;63.03;;;7.70;99.90;;;;;;5048630;28;20072;-53
2022/12/21 07:45:09;;;;;;;254.63;59.85;;;7.70;99.90;;;;;;5077302;28;20045;-54
2022/12/21 07:47:35;;;;;;;313.35;59.85;;;7.70;99.90;;;;;;5048108;28;20041;-55
2022/12/21 07:50:01;;;;;;;;;;;7.70;99.90;;;;;;5046185;28;20111;-54
2022/12/21 07:52:27;;;;;;;323.23;60.00;;;7.70;99.90;;;;;;5048316;28;20433;-52
2022/12/21 07:54:52;;;;;;;272.60;60.43;;;7.70;99.90;;;;;;5046779;28;20158;-56
2022/12/21 07:57:18;;;;;;;336.00;59.40;;;7.70;99.90;;;;;;5049284;28;20033;-56
2022/12/21 07:59:43;;;;;;;266.53;59.00;;;7.70;99.90;;;;;;5047844;28;20087;-55
2022/12/21 08:02:09;;;;;;;231.40;57.60;;;7.70;99.90;;;;;;5038368;28;20033;-51
2022/12/21 08:04:35;;;;;;;279.40;57.93;;;7.70;99.90;;;;;;5043893;28;20037;-56
2022/12/21 08:07:01;;;;;;;239.50;55.10;;;7.70;99.90;;;;;;5044869;28;20823;-53
2022/12/21 08:09:26;;;;;;;180.70;51.87;;;7.70;99.90;;;;;;5045128;28;20115;-56
2022/12/21 08:11:52;;;;;;;191.50;50.97;;;7.70;99.90;;;;;;5045408;28;20076;-54
2022/12/21 08:14:18;;;;;;;169.27;50.70;;;7.70;99.90;;;;;;5044057;28;20114;-52
2022/12/21 08:16:43;;;;;;;203.27;54.33;;;7.60;99.90;;;;;;5045050;28;20292;-52
2022/12/21 08:19:09;;;;;;;182.97;52.80;;;7.60;99.90;;;;;;5042667;28;20290;-53
2022/12/21 08:21:35;;;;;;;213.00;55.07;;;7.60;99.90;;;;;;5043461;28;20769;-51
2022/12/21 08:24:00;;;;;;;171.87;50.23;;;7.60;99.90;;;;;;5042849;28;20120;-54
2022/12/21 08:26:26;;;;;;;163.13;50.33;;;7.60;99.90;;;;;;5043802;28;20390;-51
2022/12/21 08:28:52;;;;;;;158.43;51.77;;;7.60;99.90;;;;;;5044525;28;20291;-52
2022/12/21 08:31:19;;;;;;;153.90;45.50;;;7.60;99.90;;;;;;5043232;28;20587;-53
2022/12/21 08:33:45;;;;;;;166.95;50.78;;;7.60;99.90;;;;;;5041522;28;20307;-52
2022/12/21 08:36:13;;;;;;;159.48;50.30;;;7.60;99.90;;;;;;5039074;28;20528;-54
2022/12/21 08:38:39;;;;;;;163.98;52.30;;;7.60;99.90;;;;;;5045619;28;20519;-52
2022/12/21 08:41:05;;;;;;;179.90;55.10;;;7.60;99.90;;;;;;5050687;28;20045;-53
2022/12/21 08:43:34;;;;;;;158.00;49.45;;;7.60;99.90;;;;;;5046348;28;20036;-52
2022/12/21 08:46:06;;;;;;;174.75;53.15;;;7.60;99.90;;;;;;5042904;28;20051;-53
2022/12/21 08:48:32;;;;;;;151.35;48.75;;;7.60;99.90;;;;;;5042743;28;20033;-52
2022/12/21 08:50:58;;;;;;;166.93;51.60;;;7.60;99.90;;;;;;5046476;28;20049;-54
2022/12/21 08:53:25;;;;;;;145.88;48.47;;;7.70;99.90;;;;;;5047752;28;20124;-55
2022/12/21 08:55:51;;;;;;;157.25;49.00;;;7.70;99.90;;;;;;5053029;28;20056;-52
2022/12/21 08:58:17;;;;;;;152.15;53.10;;;7.70;99.90;;;;;;5049071;28;20077;-54
2022/12/21 09:00:43;;;;;;;145.02;49.53;;;7.70;99.90;;;;;;5050548;28;20037;-54
2022/12/21 09:03:09;;;;;;;136.90;48.72;;;7.60;99.90;;;;;;5049336;28;20406;-54
2022/12/21 09:05:36;;;;;;;127.70;45.60;;;7.70;99.90;;;;;;5052055;28;20053;-53
2022/12/21 09:08:02;;;;;;;123.10;46.15;;;7.70;99.90;;;;;;5049460;28;20045;-54
2022/12/21 09:10:29;;;;;;;114.05;42.13;;;7.70;99.90;;;;;;5054057;28;20566;-52
2022/12/21 09:12:55;;;;;;;121.28;45.08;;;7.70;99.90;;;;;;5048511;28;20040;-52
2022/12/21 09:15:21;;;;;;;106.57;38.90;;;7.70;99.90;;;;;;5046684;28;20040;-53
2022/12/21 09:17:47;;;;;;;100.05;41.13;;;7.70;99.90;;;;;;5046081;28;20581;-52
2022/12/21 09:20:13;;;;;;;103.30;41.35;;;7.70;99.90;;;;;;5049722;28;20090;-54
2022/12/21 09:22:39;;;;;;;90.15;36.70;;;7.70;99.90;;;;;;5053754;28;20379;-54
2022/12/21 09:25:06;;;;;;;94.22;37.80;;;7.80;99.90;;;;;;5047337;28;20049;-53
2022/12/21 09:27:32;;;;;;;89.95;38.05;;;7.80;99.90;;;;;;5047488;28;20033;-56
2022/12/21 09:29:58;;;;;;;104.57;40.15;;;7.80;99.90;;;;;;5047112;28;20045;-55
2022/12/21 09:32:23;;;;;;;95.13;37.38;;;7.80;99.90;;;;;;5049278;28;20033;-55
2022/12/21 09:34:50;;;;;;;87.67;35.53;;;7.80;99.90;;;;;;5046164;28;20541;-55
2022/12/21 09:37:16;;;;;;;;;;;7.80;99.90;;;;;;5046618;28;20537;-55
2022/12/21 09:39:42;;;;;;;102.22;37.30;;;7.80;99.90;;;;;;5045385;28;19921;-53
2022/12/21 09:42:40;;;;;;;92.53;40.40;;;7.80;99.90;;;;;;5048472;28;20195;-54
2022/12/21 09:45:09;;;;;;;;;;;7.80;99.90;;;;;;5045496;28;20048;-55
2022/12/21 09:47:40;;;;;;;92.05;37.17;;;7.80;99.90;;;;;;5047144;28;20381;-54
2022/12/21 09:50:15;;;;;;;95.22;36.97;;;7.80;99.90;;;;;;5046637;28;20044;-54
2022/12/21 09:52:47;;;;;;;99.22;38.03;;;7.80;99.90;;;;;;5048625;28;20049;-54
2022/12/21 09:55:22;;;;;;;94.45;38.63;;;7.80;99.90;;;;;;5043277;28;20037;-52
2022/12/21 09:57:52;;;;;;;80.68;35.08;;;7.90;99.90;;;;;;5049360;28;20091;-54
2022/12/21 10:00:23;;;;;;;92.07;37.97;;;7.90;99.90;;;;;;5047415;28;20044;-55
2022/12/21 10:03:19;;;;;;;93.43;38.10;;;8.00;99.90;;;;;;5047149;28;20167;-55
2022/12/21 10:06:19;;;;;;;83.22;36.08;;;8.00;99.90;;;;;;5047094;28;20400;-55
2022/12/21 10:08:50;;;;;;;84.80;33.95;;;8.10;99.90;;;;;;5047831;28;20033;-56
2022/12/21 10:11:33;;;;;;;79.07;34.03;;;8.10;99.90;;;;;;5043195;28;20128;-54
2022/12/21 10:14:17;;;;;;;72.68;31.45;;;8.10;99.90;;;;;;5044452;28;20044;-56
2022/12/21 10:16:54;;;;;;;80.00;35.08;;;8.10;99.90;;;;;;5042723;28;20055;-56
2022/12/21 10:19:32;;;;;;;70.15;31.13;;;8.10;99.90;;;;;;5046545;28;20093;-54
2022/12/21 10:22:06;;;;;;;77.15;34.50;;;8.10;99.90;;;;;;5043707;28;20045;-55
2022/12/21 10:24:42;;;;;;;74.85;33.28;;;8.20;99.90;;;;;;5047408;28;20060;-55
2022/12/21 10:27:17;;;;;;;78.35;34.22;;;8.10;99.90;;;;;;5042864;28;20037;-56
2022/12/21 10:29:50;;;;;;;73.45;33.13;;;8.20;99.90;;;;;;5048754;28;20033;-56
2022/12/21 10:32:16;;;;;;;67.07;33.85;;;8.20;99.90;;;;;;5046771;28;20033;-56
2022/12/21 10:34:46;;;;;;;74.47;34.38;;;8.20;99.90;;;;;;5043874;28;20072;-55
2022/12/21 10:37:15;;;;;;;71.97;32.42;;;8.20;99.90;;;;;;5076114;28;20094;-56
2022/12/21 10:39:43;;;;;;;73.15;33.95;;;8.20;99.90;;;;;;5049807;28;20037;-56
2022/12/21 10:42:28;;;;;;;64.32;31.20;;;8.20;99.90;;;;;;5044790;28;20045;-55
2022/12/21 10:44:54;;;;;;;64.82;30.42;;;8.30;99.90;;;;;;5043566;28;20052;-56
2022/12/21 10:47:22;;;;;;;73.00;34.10;;;8.30;99.90;;;;;;5043517;28;20029;-55
2022/12/21 10:50:06;;;;;;;68.80;28.35;;;8.40;99.90;;;;;;5047240;28;20299;-56
2022/12/21 10:52:32;;;;;;;72.47;33.25;;;8.40;99.90;;;;;;5046960;28;20094;-53
2022/12/21 10:54:57;;;;;;;79.17;31.77;;;8.40;99.90;;;;;;5044732;28;20040;-56
2022/12/21 10:57:29;;;;;;;62.63;30.40;;;8.50;99.90;;;;;;5045639;28;20071;-54
2022/12/21 11:00:01;;;;;;;66.15;29.05;;;8.60;99.90;;;;;;5044360;28;20037;-56
2022/12/21 11:02:42;;;;;;;60.80;29.15;;;8.80;99.90;;;;;;5075654;28;20033;-56
2022/12/21 11:05:41;;;;;;;58.30;30.23;;;9.10;99.90;;;;;;5045237;28;20033;-55
2022/12/21 11:08:24;;;;;;;56.13;28.02;;;9.40;99.90;;;;;;5038015;28;20281;-55
2022/12/21 11:10:53;;;;;;;50.33;27.17;;;9.70;99.90;;;;;;5048458;28;20414;-56
2022/12/21 11:13:24;;;;;;;54.88;28.33;;;10.00;99.90;;;;;;5045397;28;20510;-55
2022/12/21 11:15:59;;;;;;;56.78;30.70;;;10.20;99.90;;;;;;5044836;28;20045;-56
2022/12/21 11:18:47;;;;;;;52.38;28.77;;;10.50;99.90;;;;;;5045299;28;20090;-56
2022/12/21 11:21:34;;;;;;;48.58;27.73;;;10.80;99.90;;;;;;5046287;28;20137;-55
2022/12/21 11:24:16;;;;;;;56.40;28.10;;;11.20;99.90;;;;;;5044136;28;20071;-57
2022/12/21 11:26:55;;;;;;;46.83;26.98;;;11.60;99.90;;;;;;5045991;28;20124;-55
2022/12/21 11:29:32;;;;;;;54.10;28.40;;;11.80;99.90;;;;;;5046399;28;20126;-56
2022/12/21 11:32:07;;;;;;;55.83;29.00;;;11.80;99.90;;;;;;5046402;28;20032;-56
2022/12/21 11:34:38;;;;;;;48.90;26.50;;;11.80;99.90;;;;;;5045923;28;20094;-56
2022/12/21 11:37:37;;;;;;;52.78;29.45;;;11.50;99.90;;;;;;5045499;28;20450;-51
2022/12/21 11:40:16;;;;;;;52.30;29.85;;;11.30;99.90;;;;;;5074488;28;20090;-56
2022/12/21 11:43:00;;;;;;;54.92;31.23;;;11.20;99.90;;;;;;5046823;28;20035;-56
2022/12/21 11:45:48;;;;;;;54.50;29.00;;;11.20;99.90;;;;;;5045733;28;20048;-55
2022/12/21 11:48:28;;;;;;;50.15;31.60;;;11.00;99.90;;;;;;5045540;28;20064;-55
2022/12/21 11:51:09;;;;;;;55.15;30.77;;;11.10;99.90;;;;;;5046131;28;20429;-56
2022/12/21 11:53:50;;;;;;;53.80;31.55;;;11.50;99.90;;;;;;5045358;28;20692;-54
2022/12/21 11:56:33;;;;;;;52.72;28.80;;;11.70;99.90;;;;;;5044321;28;20037;-54
2022/12/21 11:59:31;;;;;;;51.17;29.52;;;11.90;99.90;;;;;;5043920;28;20063;-55
2022/12/21 12:02:16;;;;;;;52.78;28.42;;;12.10;99.90;;;;;;5046594;28;20036;-55
2022/12/21 12:05:05;;;;;;;58.25;31.45;;;12.20;99.90;;;;;;5044318;28;20052;-55
2022/12/21 12:07:40;;;;;;;49.13;28.83;;;12.30;99.90;;;;;;5044615;28;20133;-52
2022/12/21 12:10:50;;;;;;;51.63;29.75;;;12.20;99.90;;;;;;5043337;28;20587;-56
2022/12/21 12:13:41;;;;;;;50.72;30.10;;;12.10;99.90;;;;;;4980877;28;20498;-55
2022/12/21 12:16:28;;;;;;;55.28;29.33;;;12.00;99.90;;;;;;5044660;28;20059;-56
2022/12/21 12:19:21;;;;;;;56.67;29.77;;;12.00;99.90;;;;;;5046687;28;20107;-55
2022/12/21 12:22:22;;;;;;;52.38;27.27;;;12.30;99.90;;;;;;5046699;28;20051;-56
2022/12/21 12:25:13;;;;;;;48.10;26.27;;;12.20;99.90;;;;;;5046666;28;20052;-53
2022/12/21 12:27:54;;;;;;;57.58;27.58;;;12.00;99.90;;;;;;5051466;28;20087;-52
2022/12/21 12:30:23;;;;;;;52.63;28.85;;;11.70;99.90;;;;;;5046755;28;20055;-52
2022/12/21 12:33:08;;;;;;;47.65;27.75;;;11.40;99.90;;;;;;5050709;28;20041;-55
2022/12/21 12:35:58;;;;;;;53.83;28.08;;;11.00;99.90;;;;;;5048009;28;20029;-54
2022/12/21 12:38:54;;;;;;;58.35;29.90;;;10.70;99.90;;;;;;5051375;28;20413;-55
2022/12/21 12:41:29;;;;;;;48.40;27.67;;;10.40;99.90;;;;;;5046617;28;20045;-55
2022/12/21 12:44:06;;;;;;;50.67;27.45;;;10.40;99.90;;;;;;5048009;28;20394;-51
2022/12/21 12:46:39;;;;;;;;;;;10.30;99.90;;;;;;5049850;28;20041;-55
2022/12/21 12:49:10;;;;;;;56.15;27.90;;;10.20;99.90;;;;;;5047135;28;19979;-52
2022/12/21 12:51:47;;;;;;;51.60;27.15;;;9.90;99.90;;;;;;5032378;28;20139;-54
2022/12/21 12:54:30;;;;;;;57.00;28.40;;;9.80;99.90;;;;;;5046583;28;20060;-55
2022/12/21 12:57:22;;;;;;;59.42;29.90;;;9.80;99.90;;;;;;5046459;28;20036;-55
2022/12/21 13:00:03;;;;;;;54.35;30.35;;;9.70;99.90;;;;;;5047905;28;20039;-56
2022/12/21 13:02:48;;;;;;;52.92;30.27;;;9.60;99.90;;;;;;5050361;28;20403;-56
2022/12/21 13:05:29;;;;;;;51.03;27.45;;;9.90;99.90;;;;;;5048523;28;20037;-56
2022/12/21 13:08:25;;;;;;;53.20;29.27;;;9.90;99.90;;;;;;5047894;28;20438;-56
2022/12/21 13:11:09;;;;;;;49.85;27.88;;;9.90;99.90;;;;;;5048871;28;20037;-55
2022/12/21 13:13:54;;;;;;;50.78;26.75;;;10.10;99.90;;;;;;5048809;28;20081;-57
2022/12/21 13:16:32;;;;;;;43.75;25.83;;;10.50;99.90;;;;;;5044863;28;20091;-54